createdAt,value
2022-11-23T00:01:32.907Z,97974.53
2022-11-23T00:04:08.969Z,97963.72
2022-11-23T00:06:39.694Z,97986.84
2022-11-23T00:09:27.484Z,97971.28
2022-11-23T00:11:56.744Z,97970.56
2022-11-23T00:14:23.928Z,97980.44
2022-11-23T00:16:51.007Z,97968.94
2022-11-23T00:19:18.011Z,97960.50
2022-11-23T00:21:45.018Z,97956.53
2022-11-23T00:24:15.095Z,97979.16
2022-11-23T00:26:50.360Z,97957.56
2022-11-23T00:29:17.307Z,97963.25
2022-11-23T00:31:44.298Z,97957.44
2022-11-23T00:34:13.551Z,97945.59
2022-11-23T00:36:40.470Z,97958.72
2022-11-23T00:39:07.771Z,97966.75
2022-11-23T00:41:41.005Z,97960.34
2022-11-23T00:44:08.765Z,97963.09
2022-11-23T00:46:36.569Z,97955.00
2022-11-23T00:49:06.929Z,97969.44
2022-11-23T00:51:38.366Z,97981.56
2022-11-23T00:54:10.046Z,97958.16
2022-11-23T00:56:40.903Z,97962.47
2022-11-23T00:59:07.850Z,97970.56
2022-11-23T01:01:37.401Z,97974.34
2022-11-23T01:04:07.129Z,97967.16
2022-11-23T01:06:38.463Z,97972.97
2022-11-23T01:09:18.013Z,97969.25
2022-11-23T01:11:45.666Z,97955.81
2022-11-23T01:14:13.489Z,97946.56
2022-11-23T01:16:45.450Z,97982.56
2022-11-23T01:19:17.569Z,97951.19
2022-11-23T01:21:48.112Z,97953.28
2022-11-23T01:24:22.056Z,97946.00
2022-11-23T01:26:53.875Z,97955.94
2022-11-23T01:29:21.726Z,97961.06
2022-11-23T01:31:51.652Z,97964.78
2022-11-23T01:34:18.967Z,97965.38
2022-11-23T01:36:52.686Z,97949.78
2022-11-23T01:39:21.599Z,97939.09
2022-11-23T01:41:52.434Z,97957.25
2022-11-23T01:44:34.098Z,97946.00
2022-11-23T01:47:06.341Z,97942.03
2022-11-23T01:49:52.015Z,97960.50
2022-11-23T01:52:23.911Z,97952.06
2022-11-23T01:54:55.167Z,97961.78
2022-11-23T01:57:37.968Z,97958.22
2022-11-23T02:00:07.334Z,97952.00
2022-11-23T02:02:43.170Z,97961.53
2022-11-23T02:05:11.156Z,97946.81
2022-11-23T02:07:39.697Z,97967.38
2022-11-23T02:10:07.335Z,97975.50
2022-11-23T02:12:34.349Z,97967.00
2022-11-23T02:15:02.763Z,97968.13
2022-11-23T02:17:30.827Z,97967.56
2022-11-23T02:20:08.466Z,97980.81
2022-11-23T02:22:47.780Z,97968.06
2022-11-23T02:25:44.483Z,97971.75
2022-11-23T02:28:15.103Z,97952.41
2022-11-23T02:33:28.083Z,97989.59
2022-11-23T02:36:02.464Z,97969.00
2022-11-23T02:38:34.241Z,97967.78
2022-11-23T02:41:01.527Z,97959.78
2022-11-23T02:43:28.728Z,97952.81
2022-11-23T02:46:01.496Z,97958.22
2022-11-23T02:48:30.016Z,97954.50
2022-11-23T02:50:57.078Z,97964.94
2022-11-23T02:53:24.611Z,97970.06
2022-11-23T02:55:53.121Z,97954.19
2022-11-23T02:58:20.180Z,97947.47
2022-11-23T03:00:47.370Z,97956.28
2022-11-23T03:03:18.192Z,97964.38
2022-11-23T03:05:45.220Z,97981.88
2022-11-23T03:08:12.291Z,97958.41
2022-11-23T03:10:40.637Z,97978.97
2022-11-23T03:13:07.867Z,97973.97
2022-11-23T03:15:37.504Z,97996.75
2022-11-23T03:18:05.668Z,97976.88
2022-11-23T03:20:33.172Z,97979.56
2022-11-23T03:23:00.282Z,97980.69
2022-11-23T03:25:27.425Z,97976.53
2022-11-23T03:28:00.113Z,97966.09
2022-11-23T03:30:27.718Z,97973.88
2022-11-23T03:32:54.933Z,97973.47
2022-11-23T03:35:23.788Z,97971.34
2022-11-23T03:38:14.061Z,97970.63
2022-11-23T03:40:45.779Z,97971.03
2022-11-23T03:43:28.037Z,97969.75
2022-11-23T03:45:54.989Z,97982.53
2022-11-23T03:48:23.035Z,97982.78
2022-11-23T03:50:52.363Z,97992.25
2022-11-23T03:53:19.298Z,97971.13
2022-11-23T03:55:47.295Z,97974.09
2022-11-23T03:58:15.164Z,97981.44
2022-11-23T04:00:42.577Z,97982.22
2022-11-23T04:03:34.154Z,97978.25
2022-11-23T04:06:11.253Z,97986.28
2022-11-23T04:08:47.417Z,97982.44
2022-11-23T04:11:21.916Z,97982.31
2022-11-23T04:13:50.974Z,97980.19
2022-11-23T04:16:19.178Z,97979.06
2022-11-23T04:18:46.317Z,97979.63
2022-11-23T04:21:13.406Z,97973.97
2022-11-23T04:23:40.394Z,97974.91
2022-11-23T04:26:10.322Z,97968.13
2022-11-23T04:28:40.885Z,97969.81
2022-11-23T04:31:08.154Z,97982.22
2022-11-23T04:33:45.963Z,97989.09
2022-11-23T04:36:15.450Z,97983.91
2022-11-23T04:38:44.815Z,97992.50
2022-11-23T04:41:15.971Z,97989.03
2022-11-23T04:43:43.136Z,98005.06
2022-11-23T04:46:12.382Z,98008.56
2022-11-23T04:48:39.595Z,97988.38
2022-11-23T04:51:07.606Z,97995.34
2022-11-23T04:53:37.680Z,97996.06
2022-11-23T04:56:05.617Z,98001.81
2022-11-23T04:58:36.899Z,98007.66
2022-11-23T05:01:05.608Z,98001.34
2022-11-23T05:03:36.493Z,97998.81
2022-11-23T05:06:07.518Z,97999.31
2022-11-23T05:09:11.852Z,97992.75
2022-11-23T05:11:59.315Z,98007.91
2022-11-23T05:14:27.347Z,98002.47
2022-11-23T05:16:54.670Z,97990.47
2022-11-23T05:19:21.810Z,98012.59
2022-11-23T05:21:49.029Z,98009.94
2022-11-23T05:24:16.397Z,98025.97
2022-11-23T05:26:56.297Z,97997.81
2022-11-23T05:29:23.691Z,98005.19
2022-11-23T05:31:50.699Z,98009.03
2022-11-23T05:34:18.465Z,98002.88
2022-11-23T05:36:46.841Z,98006.69
2022-11-23T05:39:16.119Z,98009.28
2022-11-23T05:41:44.355Z,97996.13
2022-11-23T05:44:25.814Z,98001.03
2022-11-23T05:46:54.148Z,98018.19
2022-11-23T05:49:21.863Z,98015.28
2022-11-23T05:51:49.048Z,98012.59
2022-11-23T05:54:16.999Z,98014.56
2022-11-23T05:56:58.930Z,98026.69
2022-11-23T05:59:36.263Z,97992.28
2022-11-23T06:02:03.964Z,98010.34
2022-11-23T06:04:35.436Z,98001.59
2022-11-23T06:07:03.353Z,98001.91
2022-11-23T06:09:39.551Z,97996.41
2022-11-23T06:12:09.517Z,98013.91
2022-11-23T06:14:36.684Z,98001.19
2022-11-23T06:17:06.158Z,98023.13
2022-11-23T06:19:44.688Z,98022.41
2022-11-23T06:22:12.497Z,98022.97
2022-11-23T06:24:51.253Z,98017.38
2022-11-23T06:27:58.841Z,98011.72
2022-11-23T06:30:30.939Z,98018.75
2022-11-23T06:33:04.904Z,98025.16
2022-11-23T06:35:37.730Z,98017.72
2022-11-23T06:38:04.974Z,98024.09
2022-11-23T06:40:34.008Z,98020.50
2022-11-23T06:43:01.390Z,98007.00
2022-11-23T06:45:37.580Z,98001.41
2022-11-23T06:48:09.282Z,98022.69
2022-11-23T06:50:41.729Z,98035.31
2022-11-23T06:53:12.336Z,98023.56
2022-11-23T06:56:02.644Z,98018.78
2022-11-23T06:58:31.374Z,98018.22
2022-11-23T07:01:06.757Z,98016.28
2022-11-23T07:03:40.920Z,98031.75
2022-11-23T07:06:24.109Z,98026.63
2022-11-23T07:08:55.968Z,98048.69
2022-11-23T07:11:32.663Z,98038.47
2022-11-23T07:14:00.556Z,98023.53
2022-11-23T07:16:29.826Z,98049.09
2022-11-23T07:19:01.097Z,98054.94
2022-11-23T07:21:28.312Z,98028.00
2022-11-23T07:23:56.190Z,98041.63
2022-11-23T07:26:23.295Z,98037.84
2022-11-23T07:28:50.410Z,98045.69
2022-11-23T07:31:17.619Z,98047.56
2022-11-23T07:33:45.837Z,98031.59
2022-11-23T07:36:13.459Z,98045.63
2022-11-23T07:38:42.735Z,98041.63
2022-11-23T07:41:11.546Z,98027.03
2022-11-23T07:44:05.689Z,98046.75
2022-11-23T07:46:32.713Z,98035.47
2022-11-23T07:49:02.403Z,98035.41
2022-11-23T07:51:30.109Z,98035.16
2022-11-23T07:53:57.840Z,98029.25
2022-11-23T07:56:25.078Z,98015.94
2022-11-23T07:58:52.274Z,98040.66
2022-11-23T08:01:20.355Z,98036.03
2022-11-23T08:03:48.652Z,98038.16
2022-11-23T08:06:16.216Z,98044.63
2022-11-23T08:08:43.481Z,98037.75
2022-11-23T08:11:11.233Z,98049.97
2022-11-23T08:13:39.455Z,98061.34
2022-11-23T08:16:06.802Z,98058.03
2022-11-23T08:18:33.795Z,98045.75
2022-11-23T08:21:01.708Z,98040.47
2022-11-23T08:23:29.893Z,98051.25
2022-11-23T08:25:57.761Z,98006.13
2022-11-23T08:28:24.814Z,98043.66
2022-11-23T08:30:51.915Z,98039.03
2022-11-23T08:33:19.057Z,98040.59
2022-11-23T08:35:46.089Z,98040.97
2022-11-23T08:38:13.407Z,98029.31
2022-11-23T08:40:41.077Z,98045.03
2022-11-23T08:43:08.339Z,98066.50
2022-11-23T08:45:35.416Z,98053.56
2022-11-23T08:48:03.674Z,98061.09
2022-11-23T08:50:31.487Z,98061.34
2022-11-23T08:52:59.731Z,98052.41
2022-11-23T08:55:28.081Z,98056.78
2022-11-23T08:57:56.585Z,98066.50
2022-11-23T09:00:24.364Z,98058.47
2022-11-23T09:02:51.534Z,98062.13
2022-11-23T09:05:18.506Z,98060.84
2022-11-23T09:07:45.447Z,98057.84
2022-11-23T09:10:17.720Z,98055.22
2022-11-23T09:12:45.303Z,98054.41
2022-11-23T09:15:12.427Z,98055.66
2022-11-23T09:17:39.374Z,98046.66
2022-11-23T09:20:07.220Z,98048.59
2022-11-23T09:22:34.334Z,98050.63
2022-11-23T09:25:01.422Z,98045.28
2022-11-23T09:27:30.087Z,98063.19
2022-11-23T09:29:57.035Z,98069.53
2022-11-23T09:32:24.139Z,98065.81
2022-11-23T09:34:51.157Z,98071.72
2022-11-23T09:37:18.493Z,98072.53
2022-11-23T09:39:45.494Z,98059.31
2022-11-23T09:42:33.808Z,98058.59
2022-11-23T09:45:19.742Z,98068.06
2022-11-23T09:47:54.304Z,98073.72
2022-11-23T09:50:28.823Z,98073.16
2022-11-23T09:52:55.873Z,98081.69
2022-11-23T09:55:51.897Z,98050.41
2022-11-23T09:58:22.512Z,98051.03
2022-11-23T10:01:16.895Z,98073.09
2022-11-23T10:03:49.319Z,98068.97
2022-11-23T10:06:27.335Z,98059.63
2022-11-23T10:09:32.364Z,98059.38
2022-11-23T10:12:11.387Z,98058.34
2022-11-23T10:14:51.249Z,98060.75
2022-11-23T10:17:39.968Z,98063.44
2022-11-23T10:20:29.944Z,98073.09
2022-11-23T10:23:02.013Z,98071.72
2022-11-23T10:25:39.788Z,98082.34
2022-11-23T10:28:13.887Z,98073.03
2022-11-23T10:30:41.218Z,98070.34
2022-11-23T10:33:31.703Z,98075.22
2022-11-23T10:35:58.944Z,98085.41
2022-11-23T10:38:27.803Z,98075.53
2022-11-23T10:41:00.902Z,98077.16
2022-11-23T10:43:38.512Z,98066.03
2022-11-23T10:46:23.849Z,98075.69
2022-11-23T10:48:52.386Z,98069.03
2022-11-23T10:51:33.663Z,98066.19
2022-11-23T10:54:05.684Z,98073.50
2022-11-23T10:56:34.611Z,98112.00
2022-11-23T10:59:01.712Z,98086.06
2022-11-23T11:01:30.455Z,98076.25
2022-11-23T11:04:06.755Z,98095.88
2022-11-23T11:06:36.298Z,98101.88
2022-11-23T11:09:20.065Z,98084.75
2022-11-23T11:11:52.277Z,98087.94
2022-11-23T11:14:23.658Z,98094.91
2022-11-23T11:16:53.513Z,98077.31
2022-11-23T11:19:34.802Z,98091.34
2022-11-23T11:22:23.119Z,98103.97
2022-11-23T11:24:50.302Z,98102.03
2022-11-23T11:27:21.726Z,98112.91
2022-11-23T11:29:55.489Z,98096.75
2022-11-23T11:32:28.526Z,98109.66
2022-11-23T11:35:01.620Z,98113.38
2022-11-23T11:37:50.980Z,98115.56
2022-11-23T11:40:50.779Z,98125.22
2022-11-23T11:43:54.133Z,98120.69
2022-11-23T11:47:16.917Z,98126.13
2022-11-23T11:49:47.520Z,98122.63
2022-11-23T11:52:22.468Z,98146.22
2022-11-23T11:55:04.815Z,98135.94
2022-11-23T11:57:42.445Z,98147.00
2022-11-23T12:00:19.445Z,98165.97
2022-11-23T12:03:20.338Z,98138.84
2022-11-23T12:05:51.320Z,98140.59
2022-11-23T12:08:48.357Z,98128.38
2022-11-23T12:11:15.892Z,98153.72
2022-11-23T12:13:47.046Z,98144.06
2022-11-23T12:16:26.797Z,98154.28
2022-11-23T12:19:21.075Z,98147.78
2022-11-23T12:22:22.490Z,98158.09
2022-11-23T12:25:04.679Z,98168.81
2022-11-23T12:28:01.032Z,98163.13
2022-11-23T12:30:31.589Z,98162.63
2022-11-23T12:33:07.672Z,98184.63
2022-11-23T12:36:07.458Z,98178.22
2022-11-23T12:38:53.875Z,98174.25
2022-11-23T12:41:39.513Z,98176.91
2022-11-23T12:44:19.155Z,98178.53
2022-11-23T12:46:51.508Z,98189.97
2022-11-23T12:49:38.756Z,98199.22
2022-11-23T12:52:50.226Z,98196.34
2022-11-23T12:55:35.915Z,98194.44
2022-11-23T12:58:19.859Z,98206.44
2022-11-23T13:00:58.486Z,98204.69
2022-11-23T13:04:06.677Z,98197.53
2022-11-23T13:07:31.961Z,98188.75
2022-11-23T13:10:16.198Z,98204.72
2022-11-23T13:12:55.392Z,98215.91
2022-11-23T13:15:44.371Z,98214.88
2022-11-23T13:18:34.989Z,98232.91
2022-11-23T13:21:30.624Z,98217.34
2022-11-23T13:23:58.100Z,98218.00
2022-11-23T13:26:28.604Z,98219.53
2022-11-23T13:28:58.686Z,98217.44
2022-11-23T13:31:31.728Z,98217.34
2022-11-23T13:34:01.970Z,98223.81
2022-11-23T13:37:10.592Z,98219.31
2022-11-23T13:39:44.410Z,98224.66
2022-11-23T13:42:12.301Z,98217.56
2022-11-23T13:44:42.348Z,98228.50
2022-11-23T13:47:15.112Z,98234.41
2022-11-23T13:49:48.281Z,98238.72
2022-11-23T13:52:22.193Z,98246.25
2022-11-23T13:55:13.576Z,98237.66
2022-11-23T13:57:42.908Z,98252.31
2022-11-23T14:00:49.096Z,98254.19
2022-11-23T14:03:44.852Z,98251.28
2022-11-23T14:06:36.647Z,98247.66
2022-11-23T14:09:32.341Z,98262.31
2022-11-23T14:12:11.726Z,98214.13
2022-11-23T14:15:24.985Z,98267.75
2022-11-23T14:18:08.170Z,98269.84
2022-11-23T14:21:08.598Z,98263.22
2022-11-23T14:24:00.715Z,98269.19
2022-11-23T14:26:37.423Z,98271.59
2022-11-23T14:29:34.388Z,98274.41
2022-11-23T14:32:19.750Z,98279.88
2022-11-23T14:35:15.768Z,98280.59
2022-11-23T14:38:32.130Z,98281.06
2022-11-23T14:41:16.809Z,98277.78
2022-11-23T14:43:47.633Z,98237.00
2022-11-23T14:46:28.452Z,98280.56
2022-11-23T14:49:10.858Z,98285.56
2022-11-23T14:51:49.915Z,98281.22
2022-11-23T14:54:17.646Z,98287.63
2022-11-23T14:56:47.817Z,98290.16
2022-11-23T14:59:18.540Z,98293.88
2022-11-23T15:01:52.398Z,98298.63
2022-11-23T15:05:07.044Z,98305.38
2022-11-23T15:08:11.683Z,98307.22
2022-11-23T15:10:39.123Z,98299.22
2022-11-23T15:13:27.284Z,98297.13
2022-11-23T15:15:56.731Z,98286.16
2022-11-23T15:18:33.088Z,98327.78
2022-11-23T15:21:26.863Z,98309.22
2022-11-23T15:23:58.000Z,98330.94
2022-11-23T15:26:48.970Z,98326.53
2022-11-23T15:29:37.312Z,98320.53
2022-11-23T15:32:30.376Z,98323.41
2022-11-23T15:35:03.631Z,98313.41
2022-11-23T15:37:33.377Z,98318.50
2022-11-23T15:40:06.855Z,98329.13
2022-11-23T15:42:34.254Z,98343.16
2022-11-23T15:45:17.520Z,98344.44
2022-11-23T15:47:46.503Z,98360.13
2022-11-23T15:50:17.768Z,98344.88
2022-11-23T15:52:50.223Z,98349.09
2022-11-23T15:55:21.631Z,98337.53
2022-11-23T15:57:59.466Z,98355.28
2022-11-23T16:00:29.916Z,98311.22
2022-11-23T16:03:40.713Z,98351.81
2022-11-23T16:06:14.315Z,98370.72
2022-11-23T16:08:45.187Z,98365.38
2022-11-23T16:11:33.859Z,98383.53
2022-11-23T16:14:31.695Z,98344.06
2022-11-23T16:17:26.155Z,98369.69
2022-11-23T16:20:00.861Z,98356.81
2022-11-23T16:22:38.931Z,98361.31
2022-11-23T16:25:09.633Z,98375.75
2022-11-23T16:27:40.435Z,98373.63
2022-11-23T16:30:24.699Z,98386.16
2022-11-23T16:32:54.635Z,98388.84
2022-11-23T16:35:22.780Z,98386.69
2022-11-23T16:37:52.794Z,98392.75
2022-11-23T16:40:20.370Z,98382.09
2022-11-23T16:42:55.592Z,98386.31
2022-11-23T16:45:23.524Z,98396.97
2022-11-23T16:48:05.155Z,98390.81
2022-11-23T16:50:34.709Z,98403.00
2022-11-23T16:53:15.371Z,98385.28
2022-11-23T16:55:43.931Z,98386.53
2022-11-23T16:58:24.789Z,98407.22
2022-11-23T17:00:57.667Z,98399.38
2022-11-23T17:03:27.827Z,98398.38
2022-11-23T17:05:57.960Z,98382.41
2022-11-23T17:08:37.096Z,98390.78
2022-11-23T17:11:17.898Z,98406.34
2022-11-23T17:13:57.124Z,98408.91
2022-11-23T17:16:27.315Z,98377.06
2022-11-23T17:18:57.691Z,98431.75
2022-11-23T17:21:25.386Z,98430.00
2022-11-23T17:23:54.066Z,98421.81
2022-11-23T17:26:35.809Z,98409.69
2022-11-23T17:29:06.801Z,98423.97
2022-11-23T17:31:38.087Z,98421.47
2022-11-23T17:34:14.113Z,98445.25
2022-11-23T17:36:44.836Z,98418.56
2022-11-23T17:39:28.805Z,98448.84
2022-11-23T17:42:05.087Z,98451.38
2022-11-23T17:44:42.384Z,98387.25
2022-11-23T17:47:23.909Z,98462.41
2022-11-23T17:50:02.448Z,98415.91
2022-11-23T17:53:25.412Z,98438.81
2022-11-23T17:55:49.732Z,98402.94
2022-11-23T17:58:17.276Z,98463.88
2022-11-23T18:00:44.714Z,98467.50
2022-11-23T18:03:15.052Z,98429.09
2022-11-23T18:05:48.201Z,98443.75
2022-11-23T18:08:15.304Z,98485.88
2022-11-23T18:10:42.693Z,98470.50
2022-11-23T18:13:09.808Z,98480.06
2022-11-23T18:15:37.408Z,98481.53
2022-11-23T18:18:07.684Z,98493.81
2022-11-23T18:20:34.835Z,98483.22
2022-11-23T18:23:02.589Z,98464.03
2022-11-23T18:25:32.693Z,98461.91
2022-11-23T18:28:00.492Z,98488.00
2022-11-23T18:30:36.022Z,98488.25
2022-11-23T18:33:03.771Z,98443.28
2022-11-23T18:35:33.690Z,98474.28
2022-11-23T18:38:01.278Z,98436.28
2022-11-23T18:40:33.368Z,98425.91
2022-11-23T18:43:01.307Z,98471.81
2022-11-23T18:45:29.138Z,98460.34
2022-11-23T18:47:56.710Z,98460.25
2022-11-23T18:50:24.131Z,98470.34
2022-11-23T18:52:51.632Z,98491.56
2022-11-23T18:55:19.251Z,98479.81
2022-11-23T18:57:56.066Z,98500.69
2022-11-23T19:00:26.247Z,98471.34
2022-11-23T19:02:57.847Z,98512.75
2022-11-23T19:05:33.307Z,98513.56
2022-11-23T19:08:06.529Z,98495.63
2022-11-23T19:10:36.111Z,98504.09
2022-11-23T19:13:07.088Z,98528.25
2022-11-23T19:15:34.788Z,98541.16
2022-11-23T19:18:04.502Z,98519.72
2022-11-23T19:20:35.935Z,98535.78
2022-11-23T19:23:02.969Z,98534.34
2022-11-23T19:25:35.184Z,98525.00
2022-11-23T19:28:08.707Z,98521.75
2022-11-23T19:30:38.330Z,98526.53
2022-11-23T19:33:06.083Z,98541.66
2022-11-23T19:35:33.807Z,98532.69
2022-11-23T19:38:03.542Z,98555.22
2022-11-23T19:40:36.843Z,98548.13
2022-11-23T19:43:10.185Z,98536.75
2022-11-23T19:45:38.456Z,98535.97
2022-11-23T19:48:08.901Z,98568.00
2022-11-23T19:50:36.438Z,98547.88
2022-11-23T19:53:12.194Z,98556.81
2022-11-23T19:56:12.394Z,98571.34
2022-11-23T19:58:39.813Z,98572.81
2022-11-23T20:01:17.888Z,98586.06
2022-11-23T20:03:55.102Z,98559.88
2022-11-23T20:06:28.708Z,98576.84
2022-11-23T20:09:08.515Z,98572.97
2022-11-23T20:11:44.782Z,98570.63
2022-11-23T20:14:19.522Z,98568.94
2022-11-23T20:16:49.495Z,98561.56
2022-11-23T20:19:19.596Z,98568.13
2022-11-23T20:21:52.820Z,98573.63
2022-11-23T20:24:25.562Z,98599.47
2022-11-23T20:26:54.154Z,98582.59
2022-11-23T20:29:23.858Z,98586.97
2022-11-23T20:31:55.028Z,98582.09
2022-11-23T20:34:26.466Z,98583.13
2022-11-23T20:36:53.697Z,98583.59
2022-11-23T20:39:23.317Z,98577.91
2022-11-23T20:41:50.367Z,98605.72
2022-11-23T20:44:21.133Z,98617.84
2022-11-23T20:47:01.747Z,98610.47
2022-11-23T20:49:35.649Z,98609.31
2022-11-23T20:52:03.893Z,98598.53
2022-11-23T20:54:43.550Z,98629.22
2022-11-23T20:57:17.568Z,98660.84
2022-11-23T21:00:05.704Z,98623.16
2022-11-23T21:02:33.075Z,98612.97
2022-11-23T21:05:00.403Z,98627.75
2022-11-23T21:07:27.523Z,98615.38
2022-11-23T21:09:56.543Z,98622.75
2022-11-23T21:12:47.631Z,98595.41
2022-11-23T21:15:20.222Z,98640.34
2022-11-23T21:17:49.889Z,98639.53
2022-11-23T21:20:17.319Z,98655.31
2022-11-23T21:22:44.623Z,98644.72
2022-11-23T21:25:13.671Z,98666.88
2022-11-23T21:27:42.430Z,98645.78
2022-11-23T21:30:10.583Z,98668.56
2022-11-23T21:32:37.818Z,98664.47
2022-11-23T21:35:07.878Z,98688.84
2022-11-23T21:37:34.998Z,98659.38
2022-11-23T21:40:08.684Z,98662.03
2022-11-23T21:42:38.095Z,98661.00
2022-11-23T21:45:05.588Z,98673.50
2022-11-23T21:47:32.583Z,98667.34
2022-11-23T21:50:07.191Z,98667.56
2022-11-23T21:52:34.278Z,98672.66
2022-11-23T21:55:01.388Z,98666.91
2022-11-23T21:57:30.163Z,98647.31
2022-11-23T22:00:01.819Z,98674.91
2022-11-23T22:02:39.463Z,98666.91
2022-11-23T22:05:09.047Z,98670.19
2022-11-23T22:07:36.180Z,98661.16
2022-11-23T22:10:06.674Z,98674.91
2022-11-23T22:12:36.356Z,98701.34
2022-11-23T22:15:06.646Z,98706.06
2022-11-23T22:17:35.731Z,98687.19
2022-11-23T22:20:02.830Z,98686.97
2022-11-23T22:22:33.427Z,98695.16
2022-11-23T22:25:04.761Z,98685.56
2022-11-23T22:27:31.841Z,98705.03
2022-11-23T22:30:02.270Z,98711.78
2022-11-23T22:32:31.688Z,98704.22
2022-11-23T22:35:01.904Z,98722.25
2022-11-23T22:37:32.592Z,98691.56
2022-11-23T22:40:02.807Z,98712.25
2022-11-23T22:42:30.052Z,98717.38
2022-11-23T22:44:57.313Z,98723.91
2022-11-23T22:47:29.419Z,98707.53
2022-11-23T22:49:56.531Z,98730.47
2022-11-23T22:52:26.019Z,98726.78
2022-11-23T22:54:55.645Z,98700.00
2022-11-23T22:57:25.852Z,98720.03
2022-11-23T22:59:53.561Z,98706.13
2022-11-23T23:02:20.959Z,98697.97
2022-11-23T23:04:48.270Z,98715.75
2022-11-23T23:07:15.396Z,98713.50
2022-11-23T23:09:43.078Z,98730.06
2022-11-23T23:12:11.838Z,98712.66
2022-11-23T23:14:38.914Z,98712.25
2022-11-23T23:17:06.121Z,98715.13
2022-11-23T23:19:33.199Z,98715.75
2022-11-23T23:22:00.324Z,98718.19
2022-11-23T23:24:27.592Z,98719.66
2022-11-23T23:26:55.830Z,98709.63
2022-11-23T23:29:22.969Z,98715.97
2022-11-23T23:31:50.272Z,98729.47
2022-11-23T23:34:23.962Z,98746.88
2022-11-23T23:36:50.999Z,98737.03
2022-11-23T23:39:20.465Z,98724.75
2022-11-23T23:41:48.134Z,98746.66
2022-11-23T23:44:15.265Z,98733.34
2022-11-23T23:46:47.076Z,98723.75
2022-11-23T23:49:14.962Z,98735.63
2022-11-23T23:51:50.126Z,98729.47
2022-11-23T23:54:18.884Z,98742.56
2022-11-23T23:56:45.996Z,98750.16
2022-11-23T23:59:20.374Z,98728.66
